sensor_id;sensor_type;location;lat;lon;timestamp;P1;durP1;ratioP1;P2;durP2;ratioP2
10801;SDS011;5453;50.852;7.102;2023-01-01T00:00:33;15.23;;;8.93;;
10801;SDS011;5453;50.852;7.102;2023-01-01T00:03:05;16.73;;;9.50;;
10801;SDS011;5453;50.852;7.102;2023-01-01T00:05:37;18.08;;;10.55;;
10801;SDS011;5453;50.852;7.102;2023-01-01T00:08:10;14.82;;;7.70;;
10801;SDS011;5453;50.852;7.102;2023-01-01T00:10:45;13.27;;;7.15;;
10801;SDS011;5453;50.852;7.102;2023-01-01T00:13:17;15.85;;;6.88;;
10801;SDS011;5453;50.852;7.102;2023-01-01T00:15:49;8.98;;;5.85;;
10801;SDS011;5453;50.852;7.102;2023-01-01T00:18:21;14.40;;;6.25;;
10801;SDS011;5453;50.852;7.102;2023-01-01T00:21:00;12.15;;;6.00;;
10801;SDS011;5453;50.852;7.102;2023-01-01T00:23:33;11.07;;;6.43;;
10801;SDS011;5453;50.852;7.102;2023-01-01T00:26:09;8.68;;;5.20;;
10801;SDS011;5453;50.852;7.102;2023-01-01T00:28:42;7.40;;;4.00;;
10801;SDS011;5453;50.852;7.102;2023-01-01T00:31:16;10.82;;;4.70;;
10801;SDS011;5453;50.852;7.102;2023-01-01T00:33:52;8.70;;;4.55;;
10801;SDS011;5453;50.852;7.102;2023-01-01T00:36:26;7.43;;;4.25;;
10801;SDS011;5453;50.852;7.102;2023-01-01T00:39:00;7.00;;;3.67;;
10801;SDS011;5453;50.852;7.102;2023-01-01T00:41:35;6.88;;;3.92;;
10801;SDS011;5453;50.852;7.102;2023-01-01T00:44:07;7.72;;;4.00;;
10801;SDS011;5453;50.852;7.102;2023-01-01T00:46:39;7.45;;;3.75;;
10801;SDS011;5453;50.852;7.102;2023-01-01T00:49:12;8.07;;;4.22;;
10801;SDS011;5453;50.852;7.102;2023-01-01T00:51:46;9.52;;;5.07;;
10801;SDS011;5453;50.852;7.102;2023-01-01T00:54:18;7.38;;;3.90;;
10801;SDS011;5453;50.852;7.102;2023-01-01T00:56:51;6.00;;;3.60;;
10801;SDS011;5453;50.852;7.102;2023-01-01T00:59:24;5.53;;;3.08;;
10801;SDS011;5453;50.852;7.102;2023-01-01T01:01:56;6.05;;;2.72;;
10801;SDS011;5453;50.852;7.102;2023-01-01T01:04:29;4.30;;;2.78;;
10801;SDS011;5453;50.852;7.102;2023-01-01T01:07:01;3.78;;;2.15;;
10801;SDS011;5453;50.852;7.102;2023-01-01T01:09:33;3.65;;;1.92;;
10801;SDS011;5453;50.852;7.102;2023-01-01T01:12:06;6.65;;;2.90;;
10801;SDS011;5453;50.852;7.102;2023-01-01T01:14:39;5.10;;;2.53;;
10801;SDS011;5453;50.852;7.102;2023-01-01T01:17:11;4.95;;;2.03;;
10801;SDS011;5453;50.852;7.102;2023-01-01T01:19:43;5.53;;;3.30;;
10801;SDS011;5453;50.852;7.102;2023-01-01T01:22:15;4.70;;;2.03;;
10801;SDS011;5453;50.852;7.102;2023-01-01T01:24:48;4.00;;;2.20;;
10801;SDS011;5453;50.852;7.102;2023-01-01T01:27:22;3.17;;;1.45;;
10801;SDS011;5453;50.852;7.102;2023-01-01T01:29:54;5.18;;;2.75;;
10801;SDS011;5453;50.852;7.102;2023-01-01T01:32:26;4.72;;;2.60;;
10801;SDS011;5453;50.852;7.102;2023-01-01T01:34:58;3.58;;;2.17;;
10801;SDS011;5453;50.852;7.102;2023-01-01T01:37:30;4.22;;;2.42;;
10801;SDS011;5453;50.852;7.102;2023-01-01T01:40:03;3.70;;;1.85;;
10801;SDS011;5453;50.852;7.102;2023-01-01T01:42:38;4.00;;;2.08;;
10801;SDS011;5453;50.852;7.102;2023-01-01T01:45:10;6.47;;;2.47;;
10801;SDS011;5453;50.852;7.102;2023-01-01T01:47:45;4.00;;;1.92;;
10801;SDS011;5453;50.852;7.102;2023-01-01T01:50:22;3.97;;;1.75;;
10801;SDS011;5453;50.852;7.102;2023-01-01T01:52:58;2.67;;;1.60;;
10801;SDS011;5453;50.852;7.102;2023-01-01T01:55:36;3.88;;;1.73;;
10801;SDS011;5453;50.852;7.102;2023-01-01T01:58:13;3.40;;;1.63;;
10801;SDS011;5453;50.852;7.102;2023-01-01T02:00:47;3.20;;;2.00;;
10801;SDS011;5453;50.852;7.102;2023-01-01T02:03:20;2.58;;;1.38;;
10801;SDS011;5453;50.852;7.102;2023-01-01T02:05:57;2.83;;;1.60;;
10801;SDS011;5453;50.852;7.102;2023-01-01T02:08:30;2.65;;;1.42;;
10801;SDS011;5453;50.852;7.102;2023-01-01T02:11:04;3.83;;;1.52;;
10801;SDS011;5453;50.852;7.102;2023-01-01T02:13:38;2.83;;;1.25;;
10801;SDS011;5453;50.852;7.102;2023-01-01T02:16:11;3.45;;;1.67;;
10801;SDS011;5453;50.852;7.102;2023-01-01T02:18:51;4.47;;;1.05;;
10801;SDS011;5453;50.852;7.102;2023-01-01T02:21:31;2.08;;;1.30;;
10801;SDS011;5453;50.852;7.102;2023-01-01T02:24:16;1.75;;;1.05;;
10801;SDS011;5453;50.852;7.102;2023-01-01T02:26:58;2.65;;;1.40;;
10801;SDS011;5453;50.852;7.102;2023-01-01T02:29:38;2.65;;;1.40;;
10801;SDS011;5453;50.852;7.102;2023-01-01T02:32:16;2.50;;;1.23;;
10801;SDS011;5453;50.852;7.102;2023-01-01T02:34:54;2.55;;;1.42;;
10801;SDS011;5453;50.852;7.102;2023-01-01T02:37:53;5.07;;;1.80;;
10801;SDS011;5453;50.852;7.102;2023-01-01T02:40:30;2.28;;;1.15;;
10801;SDS011;5453;50.852;7.102;2023-01-01T02:43:04;2.00;;;1.13;;
10801;SDS011;5453;50.852;7.102;2023-01-01T02:45:39;3.08;;;1.40;;
10801;SDS011;5453;50.852;7.102;2023-01-01T02:51:12;1.88;;;1.20;;
10801;SDS011;5453;50.852;7.102;2023-01-01T02:53:51;2.35;;;1.40;;
10801;SDS011;5453;50.852;7.102;2023-01-01T02:56:33;2.45;;;1.30;;
10801;SDS011;5453;50.852;7.102;2023-01-01T02:59:16;3.25;;;1.30;;
10801;SDS011;5453;50.852;7.102;2023-01-01T03:02:16;1.73;;;1.02;;
10801;SDS011;5453;50.852;7.102;2023-01-01T03:05:00;3.03;;;1.30;;
10801;SDS011;5453;50.852;7.102;2023-01-01T03:07:40;1.60;;;1.27;;
10801;SDS011;5453;50.852;7.102;2023-01-01T03:10:27;4.10;;;1.08;;
10801;SDS011;5453;50.852;7.102;2023-01-01T03:13:10;2.60;;;1.02;;
10801;SDS011;5453;50.852;7.102;2023-01-01T03:15:50;2.40;;;1.10;;
10801;SDS011;5453;50.852;7.102;2023-01-01T03:18:32;1.45;;;1.00;;
10801;SDS011;5453;50.852;7.102;2023-01-01T03:21:11;3.13;;;0.85;;
10801;SDS011;5453;50.852;7.102;2023-01-01T03:23:47;2.33;;;1.13;;
10801;SDS011;5453;50.852;7.102;2023-01-01T03:26:24;1.98;;;1.20;;
10801;SDS011;5453;50.852;7.102;2023-01-01T03:29:00;3.20;;;1.05;;
10801;SDS011;5453;50.852;7.102;2023-01-01T03:31:36;2.03;;;1.25;;
10801;SDS011;5453;50.852;7.102;2023-01-01T03:34:17;1.92;;;1.13;;
10801;SDS011;5453;50.852;7.102;2023-01-01T03:36:55;1.33;;;1.00;;
10801;SDS011;5453;50.852;7.102;2023-01-01T03:39:32;3.40;;;1.40;;
10801;SDS011;5453;50.852;7.102;2023-01-01T03:42:10;3.70;;;1.05;;
10801;SDS011;5453;50.852;7.102;2023-01-01T03:44:51;0.95;;;0.93;;
10801;SDS011;5453;50.852;7.102;2023-01-01T03:47:27;4.10;;;1.20;;
10801;SDS011;5453;50.852;7.102;2023-01-01T03:50:02;5.35;;;1.25;;
10801;SDS011;5453;50.852;7.102;2023-01-01T03:52:38;1.67;;;0.93;;
10801;SDS011;5453;50.852;7.102;2023-01-01T03:55:17;3.53;;;1.10;;
10801;SDS011;5453;50.852;7.102;2023-01-01T03:57:56;1.63;;;1.02;;
10801;SDS011;5453;50.852;7.102;2023-01-01T04:00:35;2.70;;;1.08;;
10801;SDS011;5453;50.852;7.102;2023-01-01T04:03:14;2.75;;;1.00;;
10801;SDS011;5453;50.852;7.102;2023-01-01T04:05:52;4.22;;;1.20;;
10801;SDS011;5453;50.852;7.102;2023-01-01T04:08:24;3.08;;;1.05;;
10801;SDS011;5453;50.852;7.102;2023-01-01T04:10:56;2.10;;;1.10;;
10801;SDS011;5453;50.852;7.102;2023-01-01T04:13:51;1.70;;;1.10;;
10801;SDS011;5453;50.852;7.102;2023-01-01T04:16:24;2.63;;;1.17;;
10801;SDS011;5453;50.852;7.102;2023-01-01T04:18:57;3.42;;;1.13;;
10801;SDS011;5453;50.852;7.102;2023-01-01T04:21:31;2.15;;;1.02;;
10801;SDS011;5453;50.852;7.102;2023-01-01T04:24:03;1.42;;;1.15;;
10801;SDS011;5453;50.852;7.102;2023-01-01T04:26:35;2.17;;;0.90;;
10801;SDS011;5453;50.852;7.102;2023-01-01T04:29:07;2.70;;;1.02;;
10801;SDS011;5453;50.852;7.102;2023-01-01T04:31:39;4.82;;;1.38;;
10801;SDS011;5453;50.852;7.102;2023-01-01T04:34:12;2.00;;;1.10;;
10801;SDS011;5453;50.852;7.102;2023-01-01T04:36:45;2.55;;;1.00;;
10801;SDS011;5453;50.852;7.102;2023-01-01T04:39:18;1.63;;;0.95;;
10801;SDS011;5453;50.852;7.102;2023-01-01T04:41:51;2.30;;;0.98;;
10801;SDS011;5453;50.852;7.102;2023-01-01T04:44:23;2.08;;;1.10;;
10801;SDS011;5453;50.852;7.102;2023-01-01T04:46:55;1.73;;;1.05;;
10801;SDS011;5453;50.852;7.102;2023-01-01T04:49:27;3.17;;;0.85;;
10801;SDS011;5453;50.852;7.102;2023-01-01T04:52:02;2.05;;;0.93;;
10801;SDS011;5453;50.852;7.102;2023-01-01T04:54:35;0.93;;;0.73;;
10801;SDS011;5453;50.852;7.102;2023-01-01T04:57:07;1.88;;;1.15;;
10801;SDS011;5453;50.852;7.102;2023-01-01T04:59:39;2.38;;;0.93;;
10801;SDS011;5453;50.852;7.102;2023-01-01T05:02:12;1.05;;;0.82;;
10801;SDS011;5453;50.852;7.102;2023-01-01T05:04:44;2.35;;;1.02;;
10801;SDS011;5453;50.852;7.102;2023-01-01T05:07:17;2.80;;;1.20;;
10801;SDS011;5453;50.852;7.102;2023-01-01T05:09:50;1.35;;;1.00;;
10801;SDS011;5453;50.852;7.102;2023-01-01T05:12:23;3.22;;;1.02;;
10801;SDS011;5453;50.852;7.102;2023-01-01T05:14:56;2.92;;;1.08;;
10801;SDS011;5453;50.852;7.102;2023-01-01T05:17:28;4.38;;;1.30;;
10801;SDS011;5453;50.852;7.102;2023-01-01T05:20:00;1.52;;;1.02;;
10801;SDS011;5453;50.852;7.102;2023-01-01T05:22:34;2.17;;;1.27;;
10801;SDS011;5453;50.852;7.102;2023-01-01T05:25:07;3.85;;;1.20;;
10801;SDS011;5453;50.852;7.102;2023-01-01T05:27:40;2.28;;;1.08;;
10801;SDS011;5453;50.852;7.102;2023-01-01T05:30:12;3.08;;;1.25;;
10801;SDS011;5453;50.852;7.102;2023-01-01T05:32:44;2.85;;;1.20;;
10801;SDS011;5453;50.852;7.102;2023-01-01T05:35:16;4.60;;;1.30;;
10801;SDS011;5453;50.852;7.102;2023-01-01T05:37:50;3.00;;;1.13;;
10801;SDS011;5453;50.852;7.102;2023-01-01T05:40:22;1.20;;;0.82;;
10801;SDS011;5453;50.852;7.102;2023-01-01T05:42:54;3.47;;;1.23;;
10801;SDS011;5453;50.852;7.102;2023-01-01T05:45:27;1.88;;;1.00;;
10801;SDS011;5453;50.852;7.102;2023-01-01T05:47:59;3.17;;;1.20;;
10801;SDS011;5453;50.852;7.102;2023-01-01T05:50:33;1.48;;;1.00;;
10801;SDS011;5453;50.852;7.102;2023-01-01T05:53:06;1.25;;;0.93;;
10801;SDS011;5453;50.852;7.102;2023-01-01T05:55:38;2.95;;;0.93;;
10801;SDS011;5453;50.852;7.102;2023-01-01T05:58:11;1.85;;;0.82;;
10801;SDS011;5453;50.852;7.102;2023-01-01T06:00:44;1.40;;;0.90;;
10801;SDS011;5453;50.852;7.102;2023-01-01T06:03:16;1.30;;;0.93;;
10801;SDS011;5453;50.852;7.102;2023-01-01T06:05:48;3.35;;;1.13;;
10801;SDS011;5453;50.852;7.102;2023-01-01T06:08:22;1.25;;;1.00;;
10801;SDS011;5453;50.852;7.102;2023-01-01T06:10:56;2.08;;;1.00;;
10801;SDS011;5453;50.852;7.102;2023-01-01T06:13:30;3.65;;;1.13;;
10801;SDS011;5453;50.852;7.102;2023-01-01T06:16:03;1.52;;;1.00;;
10801;SDS011;5453;50.852;7.102;2023-01-01T06:18:36;1.77;;;1.00;;
10801;SDS011;5453;50.852;7.102;2023-01-01T06:21:09;3.17;;;0.93;;
10801;SDS011;5453;50.852;7.102;2023-01-01T06:23:45;2.95;;;1.33;;
10801;SDS011;5453;50.852;7.102;2023-01-01T06:26:17;1.80;;;0.95;;
10801;SDS011;5453;50.852;7.102;2023-01-01T06:28:51;4.80;;;1.23;;
10801;SDS011;5453;50.852;7.102;2023-01-01T06:31:26;2.58;;;1.77;;
10801;SDS011;5453;50.852;7.102;2023-01-01T06:33:59;1.85;;;1.13;;
10801;SDS011;5453;50.852;7.102;2023-01-01T06:36:32;1.60;;;0.95;;
10801;SDS011;5453;50.852;7.102;2023-01-01T06:39:06;3.35;;;0.90;;
10801;SDS011;5453;50.852;7.102;2023-01-01T06:41:39;1.60;;;1.00;;
10801;SDS011;5453;50.852;7.102;2023-01-01T06:44:11;2.55;;;0.93;;
10801;SDS011;5453;50.852;7.102;2023-01-01T06:46:43;3.13;;;1.05;;
10801;SDS011;5453;50.852;7.102;2023-01-01T06:49:16;1.25;;;1.10;;
10801;SDS011;5453;50.852;7.102;2023-01-01T06:51:48;4.30;;;1.30;;
10801;SDS011;5453;50.852;7.102;2023-01-01T06:54:22;1.75;;;1.15;;
10801;SDS011;5453;50.852;7.102;2023-01-01T06:56:54;2.33;;;1.10;;
10801;SDS011;5453;50.852;7.102;2023-01-01T06:59:26;1.55;;;0.82;;
10801;SDS011;5453;50.852;7.102;2023-01-01T07:01:58;2.17;;;1.00;;
10801;SDS011;5453;50.852;7.102;2023-01-01T07:04:31;2.25;;;1.00;;
10801;SDS011;5453;50.852;7.102;2023-01-01T07:07:03;1.00;;;0.82;;
10801;SDS011;5453;50.852;7.102;2023-01-01T07:09:36;2.13;;;1.33;;
10801;SDS011;5453;50.852;7.102;2023-01-01T07:12:08;3.83;;;1.50;;
10801;SDS011;5453;50.852;7.102;2023-01-01T07:14:41;1.63;;;1.00;;
10801;SDS011;5453;50.852;7.102;2023-01-01T07:17:13;2.00;;;0.90;;
10801;SDS011;5453;50.852;7.102;2023-01-01T07:19:45;4.05;;;1.20;;
10801;SDS011;5453;50.852;7.102;2023-01-01T07:22:17;3.80;;;1.02;;
10801;SDS011;5453;50.852;7.102;2023-01-01T07:24:50;1.50;;;1.25;;
10801;SDS011;5453;50.852;7.102;2023-01-01T07:27:22;1.58;;;1.10;;
10801;SDS011;5453;50.852;7.102;2023-01-01T07:29:54;3.22;;;1.10;;
10801;SDS011;5453;50.852;7.102;2023-01-01T07:32:26;2.67;;;1.13;;
10801;SDS011;5453;50.852;7.102;2023-01-01T07:34:58;2.08;;;1.00;;
10801;SDS011;5453;50.852;7.102;2023-01-01T07:37:30;1.25;;;0.93;;
10801;SDS011;5453;50.852;7.102;2023-01-01T07:40:04;3.05;;;1.10;;
10801;SDS011;5453;50.852;7.102;2023-01-01T07:42:38;1.42;;;1.00;;
10801;SDS011;5453;50.852;7.102;2023-01-01T07:45:10;1.75;;;1.15;;
10801;SDS011;5453;50.852;7.102;2023-01-01T07:47:44;1.60;;;1.00;;
10801;SDS011;5453;50.852;7.102;2023-01-01T07:50:21;3.22;;;1.27;;
10801;SDS011;5453;50.852;7.102;2023-01-01T07:52:54;2.88;;;1.02;;
10801;SDS011;5453;50.852;7.102;2023-01-01T07:55:28;4.97;;;1.20;;
10801;SDS011;5453;50.852;7.102;2023-01-01T07:58:00;2.22;;;1.30;;
10801;SDS011;5453;50.852;7.102;2023-01-01T08:00:32;2.38;;;1.10;;
10801;SDS011;5453;50.852;7.102;2023-01-01T08:03:04;1.80;;;1.00;;
10801;SDS011;5453;50.852;7.102;2023-01-01T08:05:37;2.42;;;1.00;;
10801;SDS011;5453;50.852;7.102;2023-01-01T08:08:09;3.17;;;0.82;;
10801;SDS011;5453;50.852;7.102;2023-01-01T08:10:43;2.38;;;1.30;;
10801;SDS011;5453;50.852;7.102;2023-01-01T08:13:15;2.45;;;1.00;;
10801;SDS011;5453;50.852;7.102;2023-01-01T08:15:47;1.23;;;0.98;;
10801;SDS011;5453;50.852;7.102;2023-01-01T08:18:20;2.20;;;1.02;;
10801;SDS011;5453;50.852;7.102;2023-01-01T08:20:52;2.35;;;1.20;;
10801;SDS011;5453;50.852;7.102;2023-01-01T08:23:26;2.45;;;1.20;;
10801;SDS011;5453;50.852;7.102;2023-01-01T08:26:00;7.30;;;1.40;;
10801;SDS011;5453;50.852;7.102;2023-01-01T08:31:06;2.85;;;1.15;;
10801;SDS011;5453;50.852;7.102;2023-01-01T08:33:38;1.33;;;1.20;;
10801;SDS011;5453;50.852;7.102;2023-01-01T08:36:10;1.67;;;0.95;;
10801;SDS011;5453;50.852;7.102;2023-01-01T08:38:45;1.45;;;1.02;;
10801;SDS011;5453;50.852;7.102;2023-01-01T08:41:19;3.58;;;0.93;;
10801;SDS011;5453;50.852;7.102;2023-01-01T08:43:51;2.08;;;1.13;;
10801;SDS011;5453;50.852;7.102;2023-01-01T08:46:23;3.55;;;1.20;;
10801;SDS011;5453;50.852;7.102;2023-01-01T08:48:55;2.60;;;1.02;;
10801;SDS011;5453;50.852;7.102;2023-01-01T08:51:27;2.60;;;1.00;;
10801;SDS011;5453;50.852;7.102;2023-01-01T08:53:59;2.65;;;1.13;;
10801;SDS011;5453;50.852;7.102;2023-01-01T08:56:32;3.75;;;1.27;;
10801;SDS011;5453;50.852;7.102;2023-01-01T08:59:07;3.35;;;1.13;;
10801;SDS011;5453;50.852;7.102;2023-01-01T09:01:39;3.75;;;1.13;;
10801;SDS011;5453;50.852;7.102;2023-01-01T09:04:11;4.00;;;1.45;;
10801;SDS011;5453;50.852;7.102;2023-01-01T09:06:43;3.50;;;1.20;;
10801;SDS011;5453;50.852;7.102;2023-01-01T09:09:15;1.80;;;1.00;;
10801;SDS011;5453;50.852;7.102;2023-01-01T09:11:50;2.72;;;0.90;;
10801;SDS011;5453;50.852;7.102;2023-01-01T09:14:23;2.72;;;1.10;;
10801;SDS011;5453;50.852;7.102;2023-01-01T09:16:55;2.53;;;1.08;;
10801;SDS011;5453;50.852;7.102;2023-01-01T09:19:27;2.30;;;0.90;;
10801;SDS011;5453;50.852;7.102;2023-01-01T09:22:00;4.13;;;1.08;;
10801;SDS011;5453;50.852;7.102;2023-01-01T09:24:32;5.00;;;1.23;;
10801;SDS011;5453;50.852;7.102;2023-01-01T09:27:05;2.45;;;1.10;;
10801;SDS011;5453;50.852;7.102;2023-01-01T09:29:37;4.15;;;1.30;;
10801;SDS011;5453;50.852;7.102;2023-01-01T09:32:09;4.32;;;1.15;;
10801;SDS011;5453;50.852;7.102;2023-01-01T09:34:41;6.85;;;2.75;;
10801;SDS011;5453;50.852;7.102;2023-01-01T09:37:13;4.40;;;2.25;;
10801;SDS011;5453;50.852;7.102;2023-01-01T09:39:46;4.53;;;1.58;;
10801;SDS011;5453;50.852;7.102;2023-01-01T09:42:22;4.07;;;1.17;;
10801;SDS011;5453;50.852;7.102;2023-01-01T09:45:06;4.60;;;1.30;;
10801;SDS011;5453;50.852;7.102;2023-01-01T09:47:52;4.15;;;1.23;;
10801;SDS011;5453;50.852;7.102;2023-01-01T09:50:28;5.93;;;1.13;;
10801;SDS011;5453;50.852;7.102;2023-01-01T09:53:08;2.17;;;1.10;;
10801;SDS011;5453;50.852;7.102;2023-01-01T09:55:46;2.50;;;1.25;;
10801;SDS011;5453;50.852;7.102;2023-01-01T09:58:25;2.83;;;1.27;;
10801;SDS011;5453;50.852;7.102;2023-01-01T10:01:01;1.67;;;0.90;;
10801;SDS011;5453;50.852;7.102;2023-01-01T10:03:56;6.05;;;1.50;;
10801;SDS011;5453;50.852;7.102;2023-01-01T10:06:33;2.83;;;1.00;;
10801;SDS011;5453;50.852;7.102;2023-01-01T10:09:14;4.22;;;1.20;;
10801;SDS011;5453;50.852;7.102;2023-01-01T10:11:54;4.25;;;1.17;;
10801;SDS011;5453;50.852;7.102;2023-01-01T10:14:35;1.70;;;1.02;;
10801;SDS011;5453;50.852;7.102;2023-01-01T10:17:12;2.13;;;0.93;;
10801;SDS011;5453;50.852;7.102;2023-01-01T10:19:48;4.05;;;1.10;;
10801;SDS011;5453;50.852;7.102;2023-01-01T10:22:24;2.15;;;0.90;;
10801;SDS011;5453;50.852;7.102;2023-01-01T10:25:06;2.10;;;0.93;;
10801;SDS011;5453;50.852;7.102;2023-01-01T10:27:49;3.28;;;1.00;;
10801;SDS011;5453;50.852;7.102;2023-01-01T10:30:26;3.38;;;1.20;;
10801;SDS011;5453;50.852;7.102;2023-01-01T10:33:00;2.53;;;0.88;;
10801;SDS011;5453;50.852;7.102;2023-01-01T10:35:33;2.08;;;0.93;;
10801;SDS011;5453;50.852;7.102;2023-01-01T10:38:06;1.85;;;0.98;;
10801;SDS011;5453;50.852;7.102;2023-01-01T10:40:42;5.43;;;1.35;;
10801;SDS011;5453;50.852;7.102;2023-01-01T10:43:15;3.17;;;1.10;;
10801;SDS011;5453;50.852;7.102;2023-01-01T10:45:49;3.90;;;1.15;;
10801;SDS011;5453;50.852;7.102;2023-01-01T10:48:25;1.58;;;0.88;;
10801;SDS011;5453;50.852;7.102;2023-01-01T10:50:59;2.47;;;0.93;;
10801;SDS011;5453;50.852;7.102;2023-01-01T10:53:35;6.60;;;1.05;;
10801;SDS011;5453;50.852;7.102;2023-01-01T10:56:10;1.52;;;0.85;;
10801;SDS011;5453;50.852;7.102;2023-01-01T10:58:45;1.58;;;1.08;;
10801;SDS011;5453;50.852;7.102;2023-01-01T11:01:21;3.40;;;1.00;;
10801;SDS011;5453;50.852;7.102;2023-01-01T11:03:57;2.90;;;0.90;;
10801;SDS011;5453;50.852;7.102;2023-01-01T11:06:31;2.75;;;1.10;;
10801;SDS011;5453;50.852;7.102;2023-01-01T11:09:05;4.75;;;1.10;;
10801;SDS011;5453;50.852;7.102;2023-01-01T11:11:54;1.58;;;0.90;;
10801;SDS011;5453;50.852;7.102;2023-01-01T11:17:08;4.82;;;1.08;;
10801;SDS011;5453;50.852;7.102;2023-01-01T11:19:41;3.83;;;1.02;;
10801;SDS011;5453;50.852;7.102;2023-01-01T11:22:16;3.65;;;1.50;;
10801;SDS011;5453;50.852;7.102;2023-01-01T11:25:19;3.25;;;1.05;;
10801;SDS011;5453;50.852;7.102;2023-01-01T11:30:57;3.35;;;0.77;;
10801;SDS011;5453;50.852;7.102;2023-01-01T11:33:46;2.33;;;1.40;;
10801;SDS011;5453;50.852;7.102;2023-01-01T11:36:22;2.22;;;0.70;;
10801;SDS011;5453;50.852;7.102;2023-01-01T11:39:04;4.60;;;1.30;;
10801;SDS011;5453;50.852;7.102;2023-01-01T11:41:48;6.53;;;1.30;;
10801;SDS011;5453;50.852;7.102;2023-01-01T11:44:24;3.15;;;0.77;;
10801;SDS011;5453;50.852;7.102;2023-01-01T11:47:02;2.53;;;1.10;;
10801;SDS011;5453;50.852;7.102;2023-01-01T11:49:38;1.70;;;0.90;;
10801;SDS011;5453;50.852;7.102;2023-01-01T11:52:25;2.47;;;0.82;;
10801;SDS011;5453;50.852;7.102;2023-01-01T11:55:07;1.55;;;0.75;;
10801;SDS011;5453;50.852;7.102;2023-01-01T11:57:53;2.03;;;0.82;;
10801;SDS011;5453;50.852;7.102;2023-01-01T12:00:33;2.70;;;0.82;;
10801;SDS011;5453;50.852;7.102;2023-01-01T12:03:11;1.27;;;0.90;;
10801;SDS011;5453;50.852;7.102;2023-01-01T12:05:55;2.70;;;0.73;;
10801;SDS011;5453;50.852;7.102;2023-01-01T12:08:34;1.95;;;0.90;;
10801;SDS011;5453;50.852;7.102;2023-01-01T12:11:13;2.95;;;0.82;;
10801;SDS011;5453;50.852;7.102;2023-01-01T12:16:31;1.77;;;0.68;;
10801;SDS011;5453;50.852;7.102;2023-01-01T12:19:17;4.22;;;0.95;;
10801;SDS011;5453;50.852;7.102;2023-01-01T12:21:55;2.45;;;1.15;;
10801;SDS011;5453;50.852;7.102;2023-01-01T12:24:31;3.88;;;0.73;;
10801;SDS011;5453;50.852;7.102;2023-01-01T12:27:15;2.63;;;1.10;;
10801;SDS011;5453;50.852;7.102;2023-01-01T12:29:59;2.28;;;1.00;;
10801;SDS011;5453;50.852;7.102;2023-01-01T12:32:45;2.35;;;0.88;;
10801;SDS011;5453;50.852;7.102;2023-01-01T12:35:48;3.88;;;1.13;;
10801;SDS011;5453;50.852;7.102;2023-01-01T12:38:52;4.30;;;1.08;;
10801;SDS011;5453;50.852;7.102;2023-01-01T12:42:10;2.38;;;0.95;;
10801;SDS011;5453;50.852;7.102;2023-01-01T12:44:54;2.13;;;0.63;;
10801;SDS011;5453;50.852;7.102;2023-01-01T12:47:47;1.80;;;1.00;;
10801;SDS011;5453;50.852;7.102;2023-01-01T12:50:28;3.95;;;1.00;;
10801;SDS011;5453;50.852;7.102;2023-01-01T12:53:14;2.25;;;1.30;;
10801;SDS011;5453;50.852;7.102;2023-01-01T12:56:02;1.52;;;0.70;;
10801;SDS011;5453;50.852;7.102;2023-01-01T12:58:44;0.75;;;0.75;;
10801;SDS011;5453;50.852;7.102;2023-01-01T13:01:23;3.30;;;0.75;;
10801;SDS011;5453;50.852;7.102;2023-01-01T13:03:59;4.60;;;1.02;;
10801;SDS011;5453;50.852;7.102;2023-01-01T13:06:37;2.15;;;0.70;;
10801;SDS011;5453;50.852;7.102;2023-01-01T13:09:12;1.20;;;0.80;;
10801;SDS011;5453;50.852;7.102;2023-01-01T13:11:50;1.63;;;0.80;;
10801;SDS011;5453;50.852;7.102;2023-01-01T13:14:26;1.35;;;0.75;;
10801;SDS011;5453;50.852;7.102;2023-01-01T13:16:58;2.15;;;0.80;;
10801;SDS011;5453;50.852;7.102;2023-01-01T13:19:31;1.90;;;0.60;;
10801;SDS011;5453;50.852;7.102;2023-01-01T13:25:18;2.92;;;0.80;;
10801;SDS011;5453;50.852;7.102;2023-01-01T13:28:03;7.85;;;3.20;;
10801;SDS011;5453;50.852;7.102;2023-01-01T13:30:44;18.40;;;7.47;;
10801;SDS011;5453;50.852;7.102;2023-01-01T13:33:21;42.85;;;17.83;;
10801;SDS011;5453;50.852;7.102;2023-01-01T13:39:02;8.38;;;2.85;;
10801;SDS011;5453;50.852;7.102;2023-01-01T13:41:38;3.40;;;1.35;;
10801;SDS011;5453;50.852;7.102;2023-01-01T13:44:20;4.35;;;1.13;;
10801;SDS011;5453;50.852;7.102;2023-01-01T13:46:58;1.98;;;1.00;;
10801;SDS011;5453;50.852;7.102;2023-01-01T13:50:02;2.05;;;1.02;;
10801;SDS011;5453;50.852;7.102;2023-01-01T13:52:56;2.53;;;0.90;;
10801;SDS011;5453;50.852;7.102;2023-01-01T13:56:17;1.30;;;0.90;;
10801;SDS011;5453;50.852;7.102;2023-01-01T14:02:22;2.08;;;0.82;;
10801;SDS011;5453;50.852;7.102;2023-01-01T14:04:58;1.23;;;0.90;;
10801;SDS011;5453;50.852;7.102;2023-01-01T14:07:36;1.63;;;0.80;;
10801;SDS011;5453;50.852;7.102;2023-01-01T14:10:16;1.95;;;0.95;;
10801;SDS011;5453;50.852;7.102;2023-01-01T14:12:52;7.70;;;2.20;;
10801;SDS011;5453;50.852;7.102;2023-01-01T14:15:28;4.70;;;1.70;;
10801;SDS011;5453;50.852;7.102;2023-01-01T14:18:03;4.20;;;1.80;;
10801;SDS011;5453;50.852;7.102;2023-01-01T14:20:41;3.22;;;1.65;;
10801;SDS011;5453;50.852;7.102;2023-01-01T14:23:17;3.33;;;1.27;;
10801;SDS011;5453;50.852;7.102;2023-01-01T14:25:56;3.03;;;1.52;;
10801;SDS011;5453;50.852;7.102;2023-01-01T14:28:29;3.00;;;1.30;;
10801;SDS011;5453;50.852;7.102;2023-01-01T14:31:05;3.35;;;1.27;;
10801;SDS011;5453;50.852;7.102;2023-01-01T14:33:42;2.67;;;1.00;;
10801;SDS011;5453;50.852;7.102;2023-01-01T14:36:15;1.40;;;0.80;;
10801;SDS011;5453;50.852;7.102;2023-01-01T14:38:56;1.92;;;1.05;;
10801;SDS011;5453;50.852;7.102;2023-01-01T14:41:30;2.15;;;0.95;;
10801;SDS011;5453;50.852;7.102;2023-01-01T14:44:05;2.28;;;0.95;;
10801;SDS011;5453;50.852;7.102;2023-01-01T14:46:43;1.63;;;1.38;;
10801;SDS011;5453;50.852;7.102;2023-01-01T14:49:19;1.95;;;0.88;;
10801;SDS011;5453;50.852;7.102;2023-01-01T14:51:54;1.98;;;0.80;;
10801;SDS011;5453;50.852;7.102;2023-01-01T14:54:31;1.30;;;0.73;;
10801;SDS011;5453;50.852;7.102;2023-01-01T14:57:08;2.35;;;0.88;;
10801;SDS011;5453;50.852;7.102;2023-01-01T14:59:44;1.58;;;0.75;;
10801;SDS011;5453;50.852;7.102;2023-01-01T15:02:21;1.23;;;0.73;;
10801;SDS011;5453;50.852;7.102;2023-01-01T15:04:55;1.25;;;0.80;;
10801;SDS011;5453;50.852;7.102;2023-01-01T15:07:31;1.30;;;0.70;;
10801;SDS011;5453;50.852;7.102;2023-01-01T15:12:36;1.27;;;0.75;;
10801;SDS011;5453;50.852;7.102;2023-01-01T15:18:15;1.27;;;0.98;;
10801;SDS011;5453;50.852;7.102;2023-01-01T15:21:13;2.30;;;1.05;;
10801;SDS011;5453;50.852;7.102;2023-01-01T15:23:50;5.60;;;1.98;;
10801;SDS011;5453;50.852;7.102;2023-01-01T15:26:28;5.03;;;1.83;;
10801;SDS011;5453;50.852;7.102;2023-01-01T15:29:06;5.00;;;1.95;;
10801;SDS011;5453;50.852;7.102;2023-01-01T15:31:42;6.72;;;2.30;;
10801;SDS011;5453;50.852;7.102;2023-01-01T15:34:20;5.50;;;2.72;;
10801;SDS011;5453;50.852;7.102;2023-01-01T15:37:04;4.82;;;1.88;;
10801;SDS011;5453;50.852;7.102;2023-01-01T15:39:46;5.70;;;2.10;;
10801;SDS011;5453;50.852;7.102;2023-01-01T15:42:33;2.90;;;1.58;;
10801;SDS011;5453;50.852;7.102;2023-01-01T15:45:13;3.00;;;1.63;;
10801;SDS011;5453;50.852;7.102;2023-01-01T15:47:51;4.85;;;2.03;;
10801;SDS011;5453;50.852;7.102;2023-01-01T15:50:27;4.75;;;1.80;;
10801;SDS011;5453;50.852;7.102;2023-01-01T15:53:07;5.20;;;2.13;;
10801;SDS011;5453;50.852;7.102;2023-01-01T15:55:44;3.60;;;1.85;;
10801;SDS011;5453;50.852;7.102;2023-01-01T15:58:32;3.38;;;1.65;;
10801;SDS011;5453;50.852;7.102;2023-01-01T16:01:07;3.58;;;1.50;;
10801;SDS011;5453;50.852;7.102;2023-01-01T16:03:42;2.78;;;1.50;;
10801;SDS011;5453;50.852;7.102;2023-01-01T16:09:14;3.55;;;1.63;;
10801;SDS011;5453;50.852;7.102;2023-01-01T16:11:49;3.00;;;1.48;;
10801;SDS011;5453;50.852;7.102;2023-01-01T16:14:22;5.10;;;2.03;;
10801;SDS011;5453;50.852;7.102;2023-01-01T16:16:55;4.75;;;2.08;;
10801;SDS011;5453;50.852;7.102;2023-01-01T16:19:29;3.05;;;1.90;;
10801;SDS011;5453;50.852;7.102;2023-01-01T16:22:09;2.92;;;2.00;;
10801;SDS011;5453;50.852;7.102;2023-01-01T16:24:52;3.10;;;1.88;;
10801;SDS011;5453;50.852;7.102;2023-01-01T16:27:26;4.70;;;2.10;;